Time;durP1;ratioP1;P1;durP2;ratioP2;P2;SDS_P1;SDS_P2;PMS_P1;PMS_P2;Temp;Humidity;BMP_temperature;BMP_pressure;BME280_temperature;BME280_humidity;BME280_pressure;Samples;Min_cycle;Max_cycle;Signal;HPM_P1;HPM_P2
2021/01/19 00:00:26;;;;;;;11.48;5.90;;;5.20;99.90;;;5.70;90.58;100796.66;5017446;28;20390;-80
2021/01/19 00:02:52;;;;;;;17.08;6.82;;;5.20;99.90;;;5.78;90.59;100793.88;4999483;28;20128;-81
2021/01/19 00:05:18;;;;;;;11.52;6.00;;;5.10;99.90;;;5.75;91.56;100783.44;5018219;28;20496;-81
2021/01/19 00:07:44;;;;;;;10.55;6.88;;;5.10;99.90;;;5.63;91.58;100783.25;5014323;28;20080;-79
2021/01/19 00:10:11;;;;;;;16.08;6.63;;;5.10;99.90;;;5.88;90.26;100775.34;5018667;28;20022;-80
2021/01/19 00:12:36;;;;;;;14.95;7.22;;;5.10;99.90;;;5.78;90.79;100781.97;5019388;28;20081;-81
2021/01/19 00:15:06;;;;;;;11.68;6.80;;;5.10;99.90;;;5.79;91.16;100783.63;5018409;28;20037;-80
2021/01/19 00:17:33;;;;;;;14.73;7.10;;;5.00;99.90;;;5.75;91.43;100779.84;5027828;28;20057;-80
2021/01/19 00:19:59;;;;;;;14.68;7.18;;;5.00;99.90;;;5.86;91.65;100774.88;5027060;28;20033;-80
2021/01/19 00:22:24;;;;;;;17.45;8.27;;;5.00;99.90;;;5.80;91.66;100777.78;5016604;28;20034;-81
2021/01/19 00:24:50;;;;;;;16.13;8.13;;;5.00;99.90;;;5.74;92.18;100770.75;4997799;28;20088;-81
2021/01/19 00:27:16;;;;;;;13.50;7.47;;;4.90;99.90;;;5.70;92.21;100771.72;4997681;28;20065;-80
2021/01/19 00:29:42;;;;;;;16.35;8.48;;;4.90;99.90;;;5.64;92.71;100770.22;5015116;28;20046;-81
2021/01/19 00:32:07;;;;;;;20.27;8.77;;;4.90;99.90;;;5.72;92.64;100769.41;4990708;28;20038;-81
2021/01/19 00:34:33;;;;;;;18.13;8.32;;;4.90;99.90;;;5.72;92.08;100767.47;4990800;28;20489;-81
2021/01/19 00:36:59;;;;;;;15.45;8.60;;;4.90;99.90;;;5.56;92.88;100759.94;5017541;28;20037;-80
2021/01/19 00:39:25;;;;;;;25.10;9.10;;;4.90;99.90;;;5.58;92.74;100754.91;5035968;28;20488;-80
2021/01/19 00:41:51;;;;;;;18.45;8.88;;;4.90;99.90;;;5.71;92.21;100753.94;5018672;28;20136;-80
2021/01/19 00:44:16;;;;;;;15.82;8.73;;;4.90;99.90;;;5.60;92.69;100747.06;5018489;28;20125;-80
2021/01/19 00:46:42;;;;;;;16.98;8.45;;;4.90;99.90;;;5.60;92.46;100747.06;5019120;28;20472;-82
2021/01/19 00:49:08;;;;;;;17.83;8.43;;;4.90;99.90;;;5.67;92.13;100739.09;5036275;28;20045;-80
2021/01/19 00:51:36;;;;;;;14.48;7.70;;;4.90;99.90;;;5.70;91.82;100736.50;5018208;28;20033;-81
2021/01/19 00:54:05;;;;;;;21.60;8.82;;;4.90;99.90;;;5.66;91.88;100737.47;5038324;28;20041;-82
2021/01/19 00:56:41;;;;;;;15.80;8.23;;;4.90;99.90;;;5.68;91.60;100733.22;5042061;28;20124;-80
2021/01/19 00:59:08;;;;;;;16.00;7.95;;;4.90;99.90;;;5.60;91.10;100722.13;5043922;28;20060;-82
2021/01/19 01:01:44;;;;;;;17.00;8.40;;;4.90;99.90;;;5.57;91.44;100720.00;5024443;28;20045;-82
2021/01/19 01:04:10;;;;;;;17.80;8.05;;;4.90;99.90;;;5.56;91.11;100718.38;5023458;28;20116;-81
2021/01/19 01:06:36;;;;;;;17.80;7.72;;;4.90;99.90;;;5.53;90.68;100714.28;5035721;28;20516;-83
2021/01/19 01:09:03;;;;;;;20.48;7.30;;;4.90;99.90;;;5.60;90.29;100703.56;5036053;28;20036;-84
2021/01/19 01:11:49;;;;;;;18.45;7.78;;;5.00;99.90;;;5.60;89.91;100711.88;5017853;28;20406;-83
2021/01/19 01:14:15;;;;;;;;;;;5.00;99.90;;;5.62;89.28;100697.72;5018761;28;20052;-82
2021/01/19 01:16:42;;;;;;;15.45;6.57;;;5.00;99.90;;;5.67;88.94;100692.00;5018008;28;19913;-83
2021/01/19 01:19:09;;;;;;;19.25;6.68;;;5.10;99.90;;;5.68;88.57;100691.66;5035858;28;20563;-80
2021/01/19 01:21:39;;;;;;;15.88;7.18;;;5.10;99.90;;;5.68;88.90;100691.66;5035818;28;20393;-82
2021/01/19 01:24:08;;;;;;;20.50;6.47;;;5.10;99.90;;;5.69;88.99;100684.16;5035939;28;20036;-84
2021/01/19 01:26:35;;;;;;;17.13;6.28;;;5.00;99.90;;;5.61;88.56;100688.56;5018530;28;20178;-82
2021/01/19 01:29:05;;;;;;;21.67;6.65;;;5.00;99.90;;;5.72;88.29;100684.34;5036092;28;20116;-85
2021/01/19 01:31:32;;;;;;;16.45;5.55;;;5.10;99.90;;;5.78;87.70;100688.56;5018303;28;20025;-86
2021/01/19 01:33:58;;;;;;;14.18;6.30;;;5.10;99.90;;;5.63;88.92;100677.97;5036216;28;20044;-83
2021/01/19 01:36:24;;;;;;;15.75;6.18;;;5.00;99.90;;;5.64;88.23;100671.31;5037269;28;20034;-81
2021/01/19 01:38:50;;;;;;;15.35;5.93;;;5.00;99.90;;;5.63;88.13;100666.88;5018989;28;20084;-83
2021/01/19 01:41:21;;;;;;;16.20;6.30;;;5.10;99.90;;;5.70;87.74;100675.53;5018992;28;20022;-82
2021/01/19 01:43:47;;;;;;;18.60;6.75;;;5.10;99.90;;;5.74;87.24;100654.34;5019734;28;20124;-84
2021/01/19 01:46:16;;;;;;;16.95;6.72;;;5.00;99.90;;;5.70;87.33;100663.63;5020410;28;20052;-84
2021/01/19 01:48:46;;;;;;;13.60;6.25;;;5.00;99.90;;;5.64;87.87;100638.06;5038247;28;20025;-82
2021/01/19 01:51:14;;;;;;;16.55;6.00;;;5.00;99.90;;;5.54;88.08;100648.63;5020453;28;20036;-85
2021/01/19 01:53:41;;;;;;;14.88;6.20;;;5.00;99.90;;;5.55;87.72;100644.72;5039036;28;20338;-86
2021/01/19 01:56:11;;;;;;;8.25;4.80;;;5.00;99.90;;;5.60;87.58;100639.84;5038963;28;20214;-84
2021/01/19 01:58:38;;;;;;;14.77;5.22;;;5.00;99.90;;;5.50;87.53;100642.91;5034609;28;20040;-78
2021/01/19 02:01:05;;;;;;;14.35;5.72;;;5.00;99.90;;;5.59;87.06;100626.28;5027515;28;20560;-82
2021/01/19 02:03:32;;;;;;;10.82;4.25;;;5.00;99.90;;;5.64;86.84;100621.44;5021424;28;20051;-79
2021/01/19 02:05:58;;;;;;;11.98;5.03;;;5.00;99.90;;;5.56;86.61;100624.16;5000462;28;20037;-83
2021/01/19 02:08:36;;;;;;;10.43;4.60;;;5.00;99.90;;;5.54;87.23;100610.66;5002618;28;20038;-84
2021/01/19 02:11:56;;;;;;;8.68;4.40;;;5.00;99.90;;;5.59;86.50;100604.13;5020450;28;20041;-84
2021/01/19 02:14:34;;;;;;;12.73;4.43;;;5.00;99.90;;;5.58;86.72;100606.09;5001962;28;20066;-84
2021/01/19 02:17:40;;;;;;;12.38;4.72;;;5.00;99.90;;;5.48;87.40;100600.06;5002060;28;20030;-83
2021/01/19 02:20:40;;;;;;;8.18;4.32;;;5.00;99.90;;;5.49;86.55;100596.16;5002407;28;20124;-84
2021/01/19 02:24:10;;;;;;;13.43;4.60;;;4.90;99.90;;;5.47;86.42;100601.19;5002521;28;20103;-85
2021/01/19 02:27:09;;;;;;;12.77;3.97;;;4.90;99.90;;;5.60;85.79;100583.59;5003780;28;20022;-85
2021/01/19 02:30:09;;;;;;;9.77;4.20;;;4.90;99.90;;;5.57;86.04;100579.53;5000868;28;20117;-83
2021/01/19 02:32:52;;;;;;;13.25;4.38;;;5.00;99.90;;;5.49;86.37;100574.78;5002229;28;20214;-84
2021/01/19 02:35:26;;;;;;;8.48;4.28;;;4.90;99.90;;;5.51;86.19;100567.00;5002205;28;20049;-82
2021/01/19 02:38:32;;;;;;;13.68;4.80;;;4.90;99.90;;;5.54;86.38;100552.47;5001607;28;20079;-84
2021/01/19 02:41:02;;;;;;;10.90;3.83;;;4.90;99.90;;;5.42;86.58;100559.81;5018743;28;20033;-86
2021/01/19 02:43:30;;;;;;;7.90;3.70;;;4.90;99.90;;;5.44;85.88;100541.72;5001134;28;20026;-82
2021/01/19 02:45:57;;;;;;;10.63;3.95;;;4.90;99.90;;;5.47;85.56;100543.03;5019373;28;20044;-84
2021/01/19 02:48:25;;;;;;;7.97;3.40;;;4.90;99.90;;;5.45;85.76;100534.25;5002451;28;20084;-84
2021/01/19 02:50:53;;;;;;;10.73;4.40;;;4.90;99.90;;;5.40;85.60;100524.13;5019761;28;20060;-85
2021/01/19 02:53:22;;;;;;;6.07;3.55;;;4.90;99.90;;;5.41;85.88;100525.75;5019018;28;20500;-85
2021/01/19 02:55:51;;;;;;;9.30;3.35;;;4.90;99.90;;;5.46;85.52;100510.94;5002684;28;20288;-86
2021/01/19 02:58:47;;;;;;;6.05;3.58;;;4.90;99.90;;;5.31;85.31;100504.75;5002105;28;20037;-83
2021/01/19 03:01:29;;;;;;;7.78;2.92;;;4.90;99.90;;;5.33;85.26;100496.91;5020302;28;20167;-85
2021/01/19 03:03:56;;;;;;;5.50;3.03;;;4.80;99.90;;;5.24;85.56;100501.66;5001825;28;20485;-84
2021/01/19 03:06:30;;;;;;;9.50;3.00;;;4.80;99.90;;;5.29;85.27;100487.66;5001537;28;20119;-85
2021/01/19 03:09:01;;;;;;;4.30;2.83;;;4.80;99.90;;;5.37;84.98;100483.25;5001927;28;20034;-87
2021/01/19 03:11:28;;;;;;;6.35;2.97;;;4.80;99.90;;;5.32;84.63;100483.41;5002068;28;20069;-83
2021/01/19 03:13:53;;;;;;;8.27;3.42;;;4.80;99.90;;;5.35;84.39;100481.94;5001309;28;20036;-85
2021/01/19 03:16:24;;;;;;;6.28;2.70;;;4.80;99.90;;;5.31;84.33;100462.41;5002561;28;20034;-85
2021/01/19 03:18:52;;;;;;;6.20;2.97;;;4.70;99.90;;;5.21;84.77;100468.25;5002703;28;20066;-85
2021/01/19 03:21:18;;;;;;;4.07;2.55;;;4.70;99.90;;;5.20;83.98;100453.59;5020315;28;20100;-85
2021/01/19 03:23:44;;;;;;;8.00;2.95;;;4.70;99.90;;;5.25;83.58;100455.41;5022827;28;20105;-84
2021/01/19 03:26:10;;;;;;;7.22;3.75;;;4.70;99.90;;;5.19;84.03;100453.94;5002095;28;20030;-83
2021/01/19 03:28:37;;;;;;;5.20;2.90;;;4.70;99.90;;;5.22;83.46;100440.25;5000568;28;20099;-82
2021/01/19 03:31:04;;;;;;;4.97;2.38;;;4.70;99.90;;;5.17;82.75;100445.94;4984781;28;20124;-85
2021/01/19 03:33:31;;;;;;;5.65;2.40;;;4.70;99.90;;;5.22;83.13;100434.72;4981098;28;20026;-83
2021/01/19 03:35:57;;;;;;;7.53;2.78;;;4.70;99.90;;;5.18;82.67;100436.50;4981003;28;20045;-82
2021/01/19 03:38:23;;;;;;;5.95;2.53;;;4.70;99.90;;;5.23;82.69;100432.78;4981446;28;20095;-85
2021/01/19 03:40:49;;;;;;;6.05;2.70;;;4.70;99.90;;;5.11;82.44;100416.81;4999466;28;20034;-80
2021/01/19 03:43:15;;;;;;;6.38;2.67;;;4.60;99.90;;;5.11;82.19;100413.22;4998686;28;20075;-84
2021/01/19 03:45:41;;;;;;;8.77;2.80;;;4.60;99.90;;;5.11;81.97;100427.06;4999329;28;20018;-87
2021/01/19 03:48:07;;;;;;;7.40;2.42;;;4.60;99.90;;;5.13;81.63;100408.19;4980383;28;20062;-85
2021/01/19 03:50:34;;;;;;;7.97;2.60;;;4.60;99.90;;;4.93;82.40;100395.84;4980171;28;20505;-83
2021/01/19 03:53:00;;;;;;;3.88;2.40;;;4.60;99.90;;;5.02;81.84;100396.63;4998418;28;20386;-83
2021/01/19 03:55:30;;;;;;;4.68;2.67;;;4.60;99.90;;;5.09;81.90;100388.66;4980841;28;20064;-84
2021/01/19 03:57:57;;;;;;;6.82;2.10;;;4.60;99.90;;;5.05;81.86;100392.38;4980894;28;20026;-85
2021/01/19 04:00:24;;;;;;;7.47;2.45;;;4.60;99.90;;;4.99;81.71;100372.38;4981777;28;20456;-85
2021/01/19 04:02:50;;;;;;;5.68;2.80;;;4.60;99.90;;;5.03;81.41;100355.94;4999339;28;20034;-85
2021/01/19 04:05:16;;;;;;;7.00;2.38;;;4.50;99.90;;;4.96;81.39;100337.06;4981581;28;20052;-85
2021/01/19 04:07:43;;;;;;;6.45;2.97;;;4.50;99.90;;;5.03;80.62;100342.09;4982094;28;20088;-87
2021/01/19 04:10:12;;;;;;;10.38;2.50;;;4.50;99.90;;;5.03;80.39;100329.06;4982378;28;20030;-83
2021/01/19 04:12:39;;;;;;;6.68;2.15;;;4.50;99.90;;;5.05;80.03;100315.69;4982962;28;20023;-84
2021/01/19 04:15:07;;;;;;;8.48;2.50;;;4.60;99.90;;;5.00;79.91;100310.34;5005692;28;20018;-80
2021/01/19 04:17:33;;;;;;;6.25;2.20;;;4.60;99.90;;;5.05;80.03;100307.41;5017667;28;20026;-82
2021/01/19 04:20:00;;;;;;;5.47;1.85;;;4.50;99.90;;;5.04;80.11;100305.75;4979597;28;20397;-84
2021/01/19 04:22:26;;;;;;;5.90;2.35;;;4.60;99.90;;;5.09;79.68;100299.25;4980304;28;20053;-82
2021/01/19 04:24:53;;;;;;;7.60;2.10;;;4.60;99.90;;;5.17;78.65;100304.75;4995944;28;20113;-84
2021/01/19 04:27:20;;;;;;;7.88;2.70;;;4.60;99.90;;;5.21;78.41;100283.56;4982178;28;20038;-84
2021/01/19 04:29:47;;;;;;;8.35;2.80;;;4.60;99.90;;;5.06;79.61;100286.88;5000202;28;20030;-82
2021/01/19 04:32:14;;;;;;;7.47;1.98;;;4.60;99.90;;;5.14;78.54;100276.91;5006265;28;20032;-82
2021/01/19 04:34:40;;;;;;;6.32;1.90;;;4.70;99.90;;;5.13;78.87;100267.81;4998363;28;20053;-82
2021/01/19 04:37:06;;;;;;;8.30;2.38;;;4.70;99.90;;;5.09;79.45;100253.00;5016208;28;20121;-84
2021/01/19 04:39:32;;;;;;;8.82;2.13;;;4.70;99.90;;;5.12;79.23;100273.69;4998739;28;20120;-85
2021/01/19 04:41:58;;;;;;;11.00;2.28;;;4.80;99.90;;;5.22;78.77;100246.44;4999288;28;20026;-84
2021/01/19 04:44:36;;;;;;;7.25;2.33;;;4.70;99.90;;;5.23;78.76;100242.50;4999328;28;20053;-83
2021/01/19 04:47:02;;;;;;;7.10;2.60;;;4.70;99.90;;;5.20;79.35;100251.50;5017568;28;20034;-83
2021/01/19 04:49:30;;;;;;;6.97;1.83;;;4.70;99.90;;;5.05;80.22;100243.75;4999740;28;20060;-84
2021/01/19 04:52:03;;;;;;;6.78;2.30;;;4.70;99.90;;;5.06;79.91;100245.38;5000305;28;20037;-84
2021/01/19 04:54:56;;;;;;;7.85;1.98;;;4.70;99.90;;;5.04;80.42;100228.25;5000122;28;20119;-83
2021/01/19 04:57:31;;;;;;;10.68;2.45;;;4.60;99.90;;;5.09;80.61;100233.63;4999715;28;20044;-82
2021/01/19 05:00:09;;;;;;;11.43;2.72;;;4.60;99.90;;;5.05;81.59;100204.16;4999994;28;20505;-82
2021/01/19 05:03:09;;;;;;;7.20;1.90;;;4.60;99.90;;;5.03;81.23;100212.81;4999815;28;20034;-81
2021/01/19 05:05:39;;;;;;;7.00;2.10;;;4.50;99.90;;;4.88;81.44;100193.19;5000690;28;20034;-82
2021/01/19 05:08:17;;;;;;;6.72;2.05;;;4.50;99.90;;;5.09;82.40;100191.28;5018945;28;20025;-81
2021/01/19 05:11:30;;;;;;;8.15;2.20;;;4.50;99.90;;;4.97;82.44;100185.66;5000881;28;20057;-82
2021/01/19 05:14:03;;;;;;;5.10;2.35;;;4.50;99.90;;;4.83;83.43;100176.75;5001980;28;20032;-80
2021/01/19 05:16:32;;;;;;;8.45;2.72;;;4.40;99.90;;;4.84;83.65;100175.63;5001231;28;20121;-81
2021/01/19 05:19:01;;;;;;;6.55;2.25;;;4.50;99.90;;;4.93;84.25;100173.63;5018781;28;20037;-83
2021/01/19 05:21:27;;;;;;;8.23;2.50;;;4.40;99.90;;;4.87;84.63;100152.81;5001658;28;20129;-81
2021/01/19 05:23:56;;;;;;;7.45;2.22;;;4.50;99.90;;;5.00;84.24;100154.56;5018474;28;20022;-81
2021/01/19 05:26:23;;;;;;;8.85;2.25;;;4.50;99.90;;;5.00;83.89;100144.28;5018714;28;20137;-81
2021/01/19 05:28:53;;;;;;;9.52;2.05;;;4.50;99.90;;;4.84;85.33;100147.94;5001735;28;20040;-81
2021/01/19 05:31:28;;;;;;;6.22;2.33;;;4.50;99.90;;;4.88;84.74;100129.53;5001192;28;20049;-83
2021/01/19 05:33:56;;;;;;;8.30;2.40;;;4.50;99.90;;;4.89;85.12;100126.44;5018587;28;20107;-82
2021/01/19 05:36:46;;;;;;;9.10;2.25;;;4.50;99.90;;;4.79;85.23;100121.25;5000440;28;20138;-82
2021/01/19 05:39:23;;;;;;;9.52;2.22;;;4.40;99.90;;;4.79;85.65;100111.00;5000493;28;20045;-81
2021/01/19 05:41:55;;;;;;;5.07;2.20;;;4.40;99.90;;;4.82;85.25;100095.69;5014919;28;20037;-83
2021/01/19 05:44:31;;;;;;;9.45;2.25;;;4.30;99.90;;;4.65;86.53;100107.69;4998262;28;20085;-83
2021/01/19 05:46:59;;;;;;;12.65;2.40;;;4.30;99.90;;;4.68;86.11;100087.66;4997635;28;20033;-84
2021/01/19 05:49:28;;;;;;;10.98;2.47;;;4.20;99.90;;;4.65;86.26;100095.78;5015980;28;20072;-86
2021/01/19 05:52:13;;;;;;;9.98;2.25;;;4.20;99.90;;;4.67;86.99;100072.19;4998078;28;20085;-83
2021/01/19 05:54:44;;;;;;;9.20;2.67;;;4.30;99.90;;;4.64;87.80;100083.09;4997948;28;20065;-84
2021/01/19 05:57:23;;;;;;;7.95;2.15;;;4.20;99.90;;;4.61;87.76;100069.94;4998031;28;20034;-85
2021/01/19 06:00:04;;;;;;;7.40;2.72;;;4.20;99.90;;;4.61;87.66;100064.41;5014104;28;20026;-85
2021/01/19 06:02:43;;;;;;;8.52;2.50;;;4.20;99.90;;;4.60;88.05;100049.75;5016629;28;20429;-83
2021/01/19 06:05:16;;;;;;;8.07;2.40;;;4.20;99.90;;;4.58;88.15;100057.59;5003600;28;20026;-80
2021/01/19 06:07:47;;;;;;;13.98;3.65;;;4.10;99.90;;;4.66;88.18;100056.72;5003661;28;20033;-83
2021/01/19 06:10:20;;;;;;;6.20;2.60;;;4.20;99.90;;;4.55;87.72;100047.19;4998958;28;20524;-84
2021/01/19 06:12:45;;;;;;;6.68;2.95;;;4.20;99.90;;;4.49;88.49;100051.28;5015322;28;20026;-86
2021/01/19 06:15:12;;;;;;;10.75;2.33;;;4.20;99.90;;;4.60;88.91;100049.75;5014405;28;20045;-83
2021/01/19 06:17:41;;;;;;;6.20;2.45;;;4.10;99.90;;;4.60;88.08;100035.94;5014895;28;20041;-85
2021/01/19 06:20:08;;;;;;;11.10;2.33;;;4.20;99.90;;;4.58;89.17;100034.66;4997889;28;20033;-87
2021/01/19 06:22:35;;;;;;;7.05;2.15;;;4.20;99.90;;;4.62;88.87;100030.88;4998888;28;20026;-86
2021/01/19 06:25:04;;;;;;;6.10;2.35;;;4.20;99.90;;;4.59;88.99;100026.00;4998075;28;20030;-86
2021/01/19 06:27:34;;;;;;;11.88;2.40;;;4.20;99.90;;;4.51;89.29;100021.34;4998460;28;20058;-86
2021/01/19 06:29:59;;;;;;;10.20;3.85;;;4.10;99.90;;;4.64;89.29;100016.72;4998522;28;20034;-84
2021/01/19 06:32:44;;;;;;;8.80;2.63;;;4.20;99.90;;;4.50;89.49;100003.13;5003137;28;20037;-82
2021/01/19 06:35:16;;;;;;;11.65;2.40;;;4.10;99.90;;;4.61;90.13;100001.59;5032150;28;20053;-84
2021/01/19 06:37:45;;;;;;;6.68;2.38;;;4.20;99.90;;;4.59;89.52;99983.72;5016542;28;20094;-84
2021/01/19 06:40:18;;;;;;;5.68;2.03;;;4.20;99.90;;;4.62;89.53;99986.63;4998289;28;20132;-85
2021/01/19 06:43:02;;;;;;;7.50;2.55;;;4.20;99.90;;;4.51;90.79;99982.63;5016338;28;20393;-83
2021/01/19 06:45:30;;;;;;;7.72;3.22;;;4.10;99.90;;;4.60;90.27;99971.50;5015150;28;20026;-85
2021/01/19 06:48:01;;;;;;;6.45;2.22;;;4.10;99.90;;;4.62;89.94;99956.19;4998904;28;20033;-84
2021/01/19 06:50:34;;;;;;;10.77;2.10;;;4.20;99.90;;;4.61;90.46;99945.47;5003015;28;20053;-82
2021/01/19 06:53:41;;;;;;;15.50;2.58;;;4.20;99.90;;;4.57;90.78;99955.59;5020280;28;20026;-85
2021/01/19 06:56:15;;;;;;;10.15;4.00;;;4.20;99.90;;;4.60;90.36;99941.91;5019132;28;20057;-83
2021/01/19 06:58:57;;;;;;;6.90;2.50;;;4.20;99.90;;;4.72;90.17;99928.13;5018125;28;20053;-82
2021/01/19 07:01:29;;;;;;;7.15;2.55;;;4.20;99.90;;;4.65;91.09;99925.13;5001108;28;20056;-83
2021/01/19 07:04:26;;;;;;;11.45;2.85;;;4.20;99.90;;;4.72;90.13;99925.38;5000677;28;20037;-83
2021/01/19 07:07:39;;;;;;;6.13;2.40;;;4.20;99.90;;;4.63;90.60;99910.00;5018107;28;20072;-82
2021/01/19 07:10:08;;;;;;;7.85;2.13;;;4.20;99.90;;;4.67;90.89;99891.56;5017538;28;20022;-81
2021/01/19 07:13:06;;;;;;;5.32;1.88;;;4.30;99.90;;;4.68;91.47;99898.75;5017689;28;20058;-83
2021/01/19 07:15:56;;;;;;;5.88;2.22;;;4.30;99.90;;;4.69;91.46;99903.09;5001702;28;20121;-85
2021/01/19 07:19:02;;;;;;;5.53;2.45;;;4.30;99.90;;;4.74;91.48;99889.91;5019409;28;20057;-83
2021/01/19 07:22:08;;;;;;;7.72;2.40;;;4.30;99.90;;;4.83;91.24;99883.47;4998965;28;20045;-84
2021/01/19 07:24:45;;;;;;;10.45;2.30;;;4.30;99.90;;;4.76;91.18;99882.06;4999114;28;20033;-82
2021/01/19 07:27:18;;;;;;;4.60;2.42;;;4.30;99.90;;;4.84;91.00;99869.31;4998758;28;20512;-86
2021/01/19 07:29:45;;;;;;;4.32;2.10;;;4.40;99.90;;;4.81;90.98;99888.53;5000251;28;20030;-84
2021/01/19 07:32:23;;;;;;;6.88;2.42;;;4.30;99.90;;;4.83;91.16;99869.63;5018380;28;20410;-84
2021/01/19 07:34:50;;;;;;;7.03;2.25;;;4.40;99.90;;;4.85;91.32;99853.53;5001040;28;20060;-82
2021/01/19 07:37:27;;;;;;;5.53;2.22;;;4.40;99.90;;;4.81;91.69;99861.69;5000710;28;20033;-82
2021/01/19 07:39:52;;;;;;;5.32;2.42;;;4.50;99.90;;;4.90;92.68;99854.13;5013772;28;20071;-85
2021/01/19 07:42:20;;;;;;;3.72;1.63;;;4.40;99.90;;;4.77;92.29;99847.72;5016660;28;20045;-83
2021/01/19 07:45:02;;;;;;;5.40;2.22;;;4.40;99.90;;;4.87;92.33;99856.75;5015617;28;20028;-82
2021/01/19 07:47:44;;;;;;;5.57;2.00;;;4.40;99.90;;;4.85;92.60;99839.69;5009192;28;20370;-87
2021/01/19 07:50:23;;;;;;;7.60;2.20;;;4.40;99.90;;;4.83;92.78;99847.50;5023909;28;20034;-82
2021/01/19 07:52:52;;;;;;;5.70;1.95;;;4.40;99.90;;;4.83;92.24;99830.91;5020844;28;20034;-86
2021/01/19 07:55:23;;;;;;;3.85;1.80;;;4.50;99.90;;;4.98;91.91;99838.56;5003458;28;20036;-84
2021/01/19 07:57:53;;;;;;;7.80;2.38;;;4.60;99.90;;;5.05;91.93;99828.56;5002889;28;20062;-85
2021/01/19 08:00:27;;;;;;;4.15;1.73;;;4.60;99.90;;;4.91;92.96;99838.34;5020456;28;20195;-85
2021/01/19 08:03:10;;;;;;;5.50;2.20;;;4.60;99.90;;;5.02;92.30;99820.13;5001788;28;20029;-83
2021/01/19 08:05:39;;;;;;;4.18;1.80;;;4.60;99.90;;;4.98;92.90;99825.53;5015412;28;20029;-84
2021/01/19 08:08:19;;;;;;;8.63;1.92;;;4.60;99.90;;;5.07;92.31;99806.88;5019829;28;20078;-84
2021/01/19 08:10:58;;;;;;;3.15;1.80;;;4.60;99.90;;;4.96;92.81;99813.22;5017442;28;20125;-83
2021/01/19 08:13:27;;;;;;;5.40;2.40;;;4.60;99.90;;;4.95;93.30;99809.63;5019326;28;20038;-84
2021/01/19 08:16:07;;;;;;;4.90;1.70;;;4.60;99.90;;;5.07;92.55;99778.44;5017832;28;20044;-87
2021/01/19 08:18:44;;;;;;;5.63;1.90;;;4.60;99.90;;;5.00;93.13;99787.28;5002322;28;20034;-83
2021/01/19 08:21:19;;;;;;;3.22;1.55;;;4.60;99.90;;;5.00;92.28;99795.59;5020298;28;20064;-83
2021/01/19 08:24:13;;;;;;;6.03;1.90;;;4.60;99.90;;;5.05;92.10;99789.00;5032723;22;20045;-84
2021/01/19 08:26:43;;;;;;;4.97;1.58;;;4.60;99.90;;;5.03;93.16;99785.78;5021232;28;20508;-82
2021/01/19 08:29:08;;;;;;;5.43;2.08;;;4.60;99.90;;;5.13;92.40;99796.44;5021734;28;20037;-85
2021/01/19 08:31:37;;;;;;;5.80;1.52;;;4.60;99.90;;;5.09;92.60;99785.22;5019531;28;20374;-84
2021/01/19 08:34:08;;;;;;;2.92;1.70;;;4.60;99.90;;;5.07;92.75;99790.28;5034393;28;20080;-83
2021/01/19 08:36:36;;;;;;;2.33;1.40;;;4.60;99.90;;;5.06;92.43;99777.63;5018137;28;20026;-82
2021/01/19 08:39:05;;;;;;;5.68;1.50;;;4.60;99.90;;;5.06;92.56;99762.97;5018809;28;20141;-82
2021/01/19 08:41:36;;;;;;;2.25;1.75;;;4.60;99.90;;;5.06;92.57;99765.72;5013464;28;20030;-83
2021/01/19 08:44:14;;;;;;;1.75;1.50;;;4.60;99.90;;;4.97;93.16;99759.50;5000108;28;20072;-83
2021/01/19 08:46:52;;;;;;;;;;;;;;;;;;;;;
2021/01/19 08:49:18;;;;;;;3.20;1.45;;;4.60;99.90;;;5.12;92.75;99753.28;5016154;28;20054;-83
2021/01/19 08:52:18;;;;;;;3.60;1.50;;;4.60;99.90;;;5.04;93.12;99760.53;4981777;28;20113;-84
2021/01/19 08:54:46;;;;;;;3.97;2.10;;;4.60;99.90;;;5.12;92.96;99744.97;4996936;28;20030;-83
2021/01/19 08:57:22;;;;;;;1.83;1.13;;;4.70;99.90;;;5.09;93.42;99729.88;4981133;28;20043;-82
2021/01/19 08:59:52;;;;;;;5.05;1.60;;;4.60;99.90;;;5.11;93.48;99740.59;4980323;28;20109;-83
2021/01/19 09:02:30;;;;;;;3.92;1.50;;;4.60;99.90;;;5.12;93.12;99736.69;4994789;28;20469;-83
2021/01/19 09:04:56;;;;;;;4.93;1.60;;;4.60;99.90;;;5.13;93.44;99713.41;4999999;28;20026;-85
2021/01/19 09:07:29;;;;;;;4.53;1.60;;;4.70;99.90;;;5.07;93.41;99720.31;5000052;28;20527;-85
2021/01/19 09:09:55;;;;;;;2.25;1.33;;;4.60;99.90;;;5.15;93.13;99719.38;4999211;28;20037;-84
2021/01/19 09:12:21;;;;;;;2.95;1.40;;;4.70;99.90;;;5.26;93.18;99713.06;5026609;28;20026;-84
2021/01/19 09:14:54;;;;;;;3.22;1.27;;;4.70;99.90;;;5.14;92.90;99726.06;5013502;28;20026;-79
2021/01/19 09:17:27;;;;;;;2.28;1.20;;;4.70;99.90;;;5.17;92.95;99717.09;5014645;28;20094;-80
2021/01/19 09:20:09;;;;;;;2.45;1.20;;;4.70;99.90;;;5.10;93.68;99709.38;5013623;28;20030;-83
2021/01/19 09:22:36;;;;;;;3.47;1.42;;;4.70;99.90;;;5.24;93.04;99709.00;5010778;28;20023;-82
2021/01/19 09:25:04;;;;;;;3.30;1.40;;;4.70;99.90;;;5.27;92.89;99700.81;4980938;28;20033;-84
2021/01/19 09:27:32;;;;;;;5.65;1.20;;;4.70;99.90;;;5.18;93.68;99702.91;4996650;28;20076;-85
2021/01/19 09:30:15;;;;;;;5.47;1.45;;;4.70;99.90;;;5.17;93.18;99698.50;5009544;28;20110;-84
2021/01/19 09:32:44;;;;;;;3.53;1.20;;;4.70;99.90;;;5.09;93.05;99696.66;4998130;28;20144;-84
2021/01/19 09:35:15;;;;;;;3.80;1.20;;;4.70;99.90;;;5.20;93.37;99708.09;5017417;28;20030;-83
2021/01/19 09:37:42;;;;;;;3.20;1.33;;;4.70;99.90;;;5.22;93.62;99691.94;5016018;28;20053;-82
2021/01/19 09:40:10;;;;;;;3.05;1.40;;;4.70;99.90;;;5.23;92.94;99704.63;5000142;28;20054;-82
2021/01/19 09:42:41;;;;;;;4.25;1.42;;;4.70;99.90;;;5.18;93.07;99702.91;5018129;28;20034;-84
2021/01/19 09:45:11;;;;;;;3.70;1.55;;;4.70;99.90;;;5.23;93.48;99693.56;5000373;28;20052;-87
2021/01/19 09:47:41;;;;;;;5.40;1.25;;;4.70;99.90;;;5.30;92.91;99722.28;5017643;28;20485;-83
2021/01/19 09:50:11;;;;;;;2.35;1.50;;;4.80;99.90;;;5.25;93.13;99700.38;4997980;28;20498;-83
2021/01/19 09:52:45;;;;;;;2.75;1.33;;;4.80;99.90;;;5.16;93.76;99682.25;4998431;28;20053;-84
2021/01/19 09:55:17;;;;;;;4.53;1.25;;;4.80;99.90;;;5.28;93.50;99693.31;4995012;28;20092;-82
2021/01/19 09:57:43;;;;;;;2.35;1.20;;;4.80;99.90;;;5.26;93.99;99702.00;4998489;28;20049;-83
2021/01/19 10:00:12;;;;;;;1.27;1.08;;;4.70;99.90;;;5.31;94.26;99692.63;5015610;28;20049;-84
2021/01/19 10:02:39;;;;;;;2.63;0.98;;;4.80;99.90;;;5.23;94.39;99690.81;4998390;28;20482;-82
2021/01/19 10:05:07;;;;;;;2.28;1.00;;;4.80;99.90;;;5.35;93.77;99679.72;4999000;28;20036;-83
2021/01/19 10:07:34;;;;;;;2.92;1.20;;;4.80;99.90;;;5.33;94.17;99666.19;4999544;28;20032;-84
2021/01/19 10:10:37;;;;;;;2.17;1.30;;;4.80;99.90;;;5.32;94.37;99686.75;5016193;28;20661;-82
2021/01/19 10:13:07;;;;;;;1.35;1.05;;;4.80;99.90;;;5.39;94.04;99669.56;4998527;28;20126;-83
2021/01/19 10:15:36;;;;;;;3.78;1.73;;;4.90;99.90;;;5.45;93.72;99665.41;4999271;28;20430;-82
2021/01/19 10:18:03;;;;;;;3.58;1.30;;;4.90;99.90;;;5.57;93.53;99672.88;4998363;28;20026;-83
2021/01/19 10:20:37;;;;;;;2.42;1.33;;;4.90;99.90;;;5.45;94.68;99664.59;4998877;28;20041;-83
2021/01/19 10:23:05;;;;;;;1.80;1.40;;;5.00;99.90;;;5.51;95.29;99679.81;5001402;28;20038;-81
2021/01/19 10:25:36;;;;;;;3.80;1.75;;;5.00;99.90;;;5.42;95.15;99659.75;5023696;28;20036;-83
2021/01/19 10:28:05;;;;;;;5.40;1.50;;;5.00;99.90;;;5.49;95.91;99671.84;5005732;28;20036;-84
2021/01/19 10:30:37;;;;;;;3.35;1.60;;;5.00;99.90;;;5.54;95.49;99671.63;5023126;28;20066;-83
2021/01/19 10:33:03;;;;;;;3.05;1.20;;;5.00;99.90;;;5.55;95.50;99658.59;5004029;28;20393;-82
2021/01/19 10:35:37;;;;;;;3.30;1.67;;;5.00;99.90;;;5.51;96.20;99658.47;5003131;28;20046;-85
2021/01/19 10:38:08;;;;;;;5.65;1.42;;;5.10;99.90;;;5.69;95.54;99665.34;5003912;28;20129;-82
2021/01/19 10:40:45;;;;;;;2.83;1.70;;;5.10;99.90;;;5.74;95.74;99661.56;5003805;28;20030;-80
2021/01/19 10:43:13;;;;;;;2.40;1.42;;;5.10;99.90;;;5.68;96.79;99651.88;5003045;28;20061;-81
2021/01/19 10:45:44;;;;;;;2.63;1.55;;;5.20;99.90;;;5.77;96.37;99661.66;5020409;28;20029;-81
2021/01/19 10:48:32;;;;;;;4.10;1.90;;;5.30;99.90;;;5.86;96.65;99656.00;5117210;27;20383;-85
2021/01/19 10:51:06;;;;;;;2.28;1.48;;;5.30;99.90;;;5.80;96.92;99644.34;5112336;28;20495;-84